sensor_id;sensor_type;location;lat;lon;timestamp;P1;durP1;ratioP1;P2;durP2;ratioP2
40322;SDS011;26030;51.164;17.100;2023-12-22T00:02:16;13.80;;;8.80;;
40322;SDS011;26030;51.164;17.100;2023-12-22T00:07:20;14.90;;;8.30;;
40322;SDS011;26030;51.164;17.100;2023-12-22T00:12:25;11.40;;;7.50;;
40322;SDS011;26030;51.164;17.100;2023-12-22T00:17:30;10.20;;;7.30;;
40322;SDS011;26030;51.164;17.100;2023-12-22T00:22:34;13.10;;;7.80;;
40322;SDS011;26030;51.164;17.100;2023-12-22T00:27:39;15.40;;;7.40;;
40322;SDS011;26030;51.164;17.100;2023-12-22T00:32:44;11.00;;;7.50;;
40322;SDS011;26030;51.164;17.100;2023-12-22T00:37:48;11.00;;;7.30;;
40322;SDS011;26030;51.164;17.100;2023-12-22T00:42:53;10.30;;;6.70;;
40322;SDS011;26030;51.164;17.100;2023-12-22T00:47:58;11.10;;;7.10;;
40322;SDS011;26030;51.164;17.100;2023-12-22T00:53:03;10.50;;;6.70;;
40322;SDS011;26030;51.164;17.100;2023-12-22T00:58:07;7.90;;;6.00;;
40322;SDS011;26030;51.164;17.100;2023-12-22T01:03:12;10.30;;;6.40;;
40322;SDS011;26030;51.164;17.100;2023-12-22T01:08:17;9.50;;;5.90;;
40322;SDS011;26030;51.164;17.100;2023-12-22T01:13:22;9.70;;;6.00;;
40322;SDS011;26030;51.164;17.100;2023-12-22T01:18:27;10.90;;;6.60;;
40322;SDS011;26030;51.164;17.100;2023-12-22T01:23:34;8.30;;;6.00;;
40322;SDS011;26030;51.164;17.100;2023-12-22T01:28:38;7.80;;;5.30;;
40322;SDS011;26030;51.164;17.100;2023-12-22T01:33:43;7.50;;;5.40;;
40322;SDS011;26030;51.164;17.100;2023-12-22T01:38:49;7.80;;;5.10;;
40322;SDS011;26030;51.164;17.100;2023-12-22T01:43:55;5.90;;;4.50;;
40322;SDS011;26030;51.164;17.100;2023-12-22T01:49:02;6.30;;;5.10;;
40322;SDS011;26030;51.164;17.100;2023-12-22T01:54:06;7.10;;;4.80;;
40322;SDS011;26030;51.164;17.100;2023-12-22T01:59:12;7.00;;;5.30;;
40322;SDS011;26030;51.164;17.100;2023-12-22T02:04:17;6.70;;;4.40;;
40322;SDS011;26030;51.164;17.100;2023-12-22T02:09:21;7.90;;;5.00;;
40322;SDS011;26030;51.164;17.100;2023-12-22T02:14:26;8.40;;;5.10;;
40322;SDS011;26030;51.164;17.100;2023-12-22T02:19:45;5.70;;;4.60;;
40322;SDS011;26030;51.164;17.100;2023-12-22T02:24:50;5.50;;;4.00;;
40322;SDS011;26030;51.164;17.100;2023-12-22T02:30:06;5.30;;;4.70;;
40322;SDS011;26030;51.164;17.100;2023-12-22T02:35:16;6.40;;;4.40;;
40322;SDS011;26030;51.164;17.100;2023-12-22T02:40:22;6.40;;;4.20;;
40322;SDS011;26030;51.164;17.100;2023-12-22T02:45:28;5.60;;;4.40;;
40322;SDS011;26030;51.164;17.100;2023-12-22T02:50:34;4.70;;;3.60;;
40322;SDS011;26030;51.164;17.100;2023-12-22T02:55:39;8.20;;;4.10;;
40322;SDS011;26030;51.164;17.100;2023-12-22T03:00:44;6.40;;;4.00;;
40322;SDS011;26030;51.164;17.100;2023-12-22T03:05:48;6.80;;;4.00;;
40322;SDS011;26030;51.164;17.100;2023-12-22T03:10:53;5.20;;;4.00;;
40322;SDS011;26030;51.164;17.100;2023-12-22T03:15:58;4.90;;;3.30;;
40322;SDS011;26030;51.164;17.100;2023-12-22T03:21:03;4.60;;;3.70;;
40322;SDS011;26030;51.164;17.100;2023-12-22T03:26:07;4.90;;;3.50;;
40322;SDS011;26030;51.164;17.100;2023-12-22T03:31:12;4.80;;;3.40;;
40322;SDS011;26030;51.164;17.100;2023-12-22T03:36:17;4.40;;;3.10;;
40322;SDS011;26030;51.164;17.100;2023-12-22T03:41:21;3.90;;;3.60;;
40322;SDS011;26030;51.164;17.100;2023-12-22T03:46:26;3.70;;;3.10;;
40322;SDS011;26030;51.164;17.100;2023-12-22T03:51:30;3.30;;;3.00;;
40322;SDS011;26030;51.164;17.100;2023-12-22T03:56:35;3.40;;;2.50;;
40322;SDS011;26030;51.164;17.100;2023-12-22T04:01:40;4.30;;;3.00;;
40322;SDS011;26030;51.164;17.100;2023-12-22T04:06:46;3.30;;;2.90;;
40322;SDS011;26030;51.164;17.100;2023-12-22T04:11:51;4.10;;;2.90;;
40322;SDS011;26030;51.164;17.100;2023-12-22T04:16:55;6.20;;;3.10;;
40322;SDS011;26030;51.164;17.100;2023-12-22T04:22:00;3.90;;;2.80;;
40322;SDS011;26030;51.164;17.100;2023-12-22T04:27:05;2.90;;;2.60;;
40322;SDS011;26030;51.164;17.100;2023-12-22T04:32:10;4.20;;;2.80;;
40322;SDS011;26030;51.164;17.100;2023-12-22T04:37:15;3.40;;;2.80;;
40322;SDS011;26030;51.164;17.100;2023-12-22T04:42:20;2.40;;;2.20;;
40322;SDS011;26030;51.164;17.100;2023-12-22T04:47:24;3.30;;;2.90;;
40322;SDS011;26030;51.164;17.100;2023-12-22T04:52:29;3.40;;;2.60;;
40322;SDS011;26030;51.164;17.100;2023-12-22T04:57:34;2.50;;;2.30;;
40322;SDS011;26030;51.164;17.100;2023-12-22T05:02:38;3.40;;;2.50;;
40322;SDS011;26030;51.164;17.100;2023-12-22T05:07:42;2.70;;;2.00;;
40322;SDS011;26030;51.164;17.100;2023-12-22T05:12:47;3.10;;;2.30;;
40322;SDS011;26030;51.164;17.100;2023-12-22T05:17:52;2.80;;;2.00;;
40322;SDS011;26030;51.164;17.100;2023-12-22T05:22:57;2.70;;;2.00;;
40322;SDS011;26030;51.164;17.100;2023-12-22T05:28:03;2.10;;;2.00;;
40322;SDS011;26030;51.164;17.100;2023-12-22T05:33:07;2.80;;;2.30;;
40322;SDS011;26030;51.164;17.100;2023-12-22T05:38:11;2.80;;;2.10;;
40322;SDS011;26030;51.164;17.100;2023-12-22T05:43:16;2.20;;;1.80;;
40322;SDS011;26030;51.164;17.100;2023-12-22T05:48:21;2.90;;;2.30;;
40322;SDS011;26030;51.164;17.100;2023-12-22T05:53:26;3.40;;;2.10;;
40322;SDS011;26030;51.164;17.100;2023-12-22T05:58:30;3.40;;;2.20;;
40322;SDS011;26030;51.164;17.100;2023-12-22T06:03:35;2.50;;;2.30;;
40322;SDS011;26030;51.164;17.100;2023-12-22T06:08:40;2.70;;;1.70;;
40322;SDS011;26030;51.164;17.100;2023-12-22T06:13:44;3.20;;;1.80;;
40322;SDS011;26030;51.164;17.100;2023-12-22T06:18:49;2.50;;;1.90;;
40322;SDS011;26030;51.164;17.100;2023-12-22T06:23:54;2.60;;;1.40;;
40322;SDS011;26030;51.164;17.100;2023-12-22T06:28:58;2.50;;;1.80;;
40322;SDS011;26030;51.164;17.100;2023-12-22T06:34:03;2.60;;;2.20;;
40322;SDS011;26030;51.164;17.100;2023-12-22T06:39:08;5.80;;;1.80;;
40322;SDS011;26030;51.164;17.100;2023-12-22T06:44:12;2.80;;;1.60;;
40322;SDS011;26030;51.164;17.100;2023-12-22T06:49:17;4.80;;;2.10;;
40322;SDS011;26030;51.164;17.100;2023-12-22T06:54:21;2.50;;;1.70;;
40322;SDS011;26030;51.164;17.100;2023-12-22T06:59:25;3.90;;;2.20;;
40322;SDS011;26030;51.164;17.100;2023-12-22T07:10:09;2.20;;;1.40;;
40322;SDS011;26030;51.164;17.100;2023-12-22T07:15:15;1.60;;;1.40;;
40322;SDS011;26030;51.164;17.100;2023-12-22T07:20:20;1.60;;;1.40;;
40322;SDS011;26030;51.164;17.100;2023-12-22T07:25:24;2.20;;;1.50;;
40322;SDS011;26030;51.164;17.100;2023-12-22T07:30:29;2.50;;;1.70;;
40322;SDS011;26030;51.164;17.100;2023-12-22T07:35:33;2.00;;;1.40;;
40322;SDS011;26030;51.164;17.100;2023-12-22T07:40:38;1.30;;;1.10;;
40322;SDS011;26030;51.164;17.100;2023-12-22T07:45:42;2.30;;;1.20;;
40322;SDS011;26030;51.164;17.100;2023-12-22T07:50:47;2.10;;;1.30;;
40322;SDS011;26030;51.164;17.100;2023-12-22T07:55:52;1.80;;;1.30;;
40322;SDS011;26030;51.164;17.100;2023-12-22T08:00:56;1.50;;;1.40;;
40322;SDS011;26030;51.164;17.100;2023-12-22T08:06:03;1.60;;;1.10;;
40322;SDS011;26030;51.164;17.100;2023-12-22T08:11:12;1.80;;;1.30;;
40322;SDS011;26030;51.164;17.100;2023-12-22T08:16:21;1.60;;;1.50;;
40322;SDS011;26030;51.164;17.100;2023-12-22T08:21:26;1.40;;;1.10;;
40322;SDS011;26030;51.164;17.100;2023-12-22T08:26:46;4.80;;;1.90;;
40322;SDS011;26030;51.164;17.100;2023-12-22T08:31:51;3.40;;;1.40;;
40322;SDS011;26030;51.164;17.100;2023-12-22T08:36:56;1.70;;;1.00;;
40322;SDS011;26030;51.164;17.100;2023-12-22T08:42:01;4.00;;;1.60;;
40322;SDS011;26030;51.164;17.100;2023-12-22T08:47:05;2.40;;;1.50;;
40322;SDS011;26030;51.164;17.100;2023-12-22T08:52:10;1.50;;;1.00;;
40322;SDS011;26030;51.164;17.100;2023-12-22T08:57:14;2.40;;;1.30;;
40322;SDS011;26030;51.164;17.100;2023-12-22T09:02:18;5.70;;;1.80;;
40322;SDS011;26030;51.164;17.100;2023-12-22T09:07:24;3.20;;;1.30;;
40322;SDS011;26030;51.164;17.100;2023-12-22T09:12:29;7.70;;;1.80;;
40322;SDS011;26030;51.164;17.100;2023-12-22T09:17:34;4.10;;;1.80;;
40322;SDS011;26030;51.164;17.100;2023-12-22T09:22:41;5.60;;;1.90;;
40322;SDS011;26030;51.164;17.100;2023-12-22T09:27:45;3.80;;;1.00;;
40322;SDS011;26030;51.164;17.100;2023-12-22T09:32:49;4.90;;;1.30;;
40322;SDS011;26030;51.164;17.100;2023-12-22T09:37:54;4.80;;;1.20;;
40322;SDS011;26030;51.164;17.100;2023-12-22T09:42:58;4.90;;;1.40;;
40322;SDS011;26030;51.164;17.100;2023-12-22T09:48:05;3.30;;;1.20;;
40322;SDS011;26030;51.164;17.100;2023-12-22T09:53:13;2.70;;;1.20;;
40322;SDS011;26030;51.164;17.100;2023-12-22T09:58:19;6.20;;;1.40;;
40322;SDS011;26030;51.164;17.100;2023-12-22T10:03:24;4.10;;;1.10;;
40322;SDS011;26030;51.164;17.100;2023-12-22T10:08:30;2.50;;;1.00;;
40322;SDS011;26030;51.164;17.100;2023-12-22T10:13:36;1.50;;;1.30;;
40322;SDS011;26030;51.164;17.100;2023-12-22T10:18:45;2.20;;;1.20;;
40322;SDS011;26030;51.164;17.100;2023-12-22T10:23:54;6.00;;;1.50;;
40322;SDS011;26030;51.164;17.100;2023-12-22T10:28:58;2.40;;;1.10;;
40322;SDS011;26030;51.164;17.100;2023-12-22T10:34:04;3.90;;;1.40;;
40322;SDS011;26030;51.164;17.100;2023-12-22T10:39:09;26.00;;;12.00;;
40322;SDS011;26030;51.164;17.100;2023-12-22T10:44:14;56.30;;;26.50;;
40322;SDS011;26030;51.164;17.100;2023-12-22T10:49:18;83.30;;;42.20;;
40322;SDS011;26030;51.164;17.100;2023-12-22T10:54:23;82.70;;;39.20;;
40322;SDS011;26030;51.164;17.100;2023-12-22T10:59:29;97.10;;;40.60;;
40322;SDS011;26030;51.164;17.100;2023-12-22T11:04:38;83.70;;;37.80;;
40322;SDS011;26030;51.164;17.100;2023-12-22T11:09:46;76.80;;;36.70;;
40322;SDS011;26030;51.164;17.100;2023-12-22T11:14:52;69.90;;;34.60;;
40322;SDS011;26030;51.164;17.100;2023-12-22T11:19:58;63.90;;;33.00;;
40322;SDS011;26030;51.164;17.100;2023-12-22T11:25:04;79.40;;;35.80;;
40322;SDS011;26030;51.164;17.100;2023-12-22T11:30:11;107.20;;;54.80;;
40322;SDS011;26030;51.164;17.100;2023-12-22T11:35:16;167.10;;;83.40;;
40322;SDS011;26030;51.164;17.100;2023-12-22T11:40:21;206.60;;;95.10;;
40322;SDS011;26030;51.164;17.100;2023-12-22T11:45:30;171.00;;;87.00;;
40322;SDS011;26030;51.164;17.100;2023-12-22T11:50:34;148.30;;;73.10;;
40322;SDS011;26030;51.164;17.100;2023-12-22T11:56:04;146.00;;;69.30;;
40322;SDS011;26030;51.164;17.100;2023-12-22T12:01:12;131.20;;;63.50;;
40322;SDS011;26030;51.164;17.100;2023-12-22T12:17:08;121.90;;;56.40;;
40322;SDS011;26030;51.164;17.100;2023-12-22T12:22:14;103.70;;;52.30;;
40322;SDS011;26030;51.164;17.100;2023-12-22T12:27:21;108.20;;;53.80;;
40322;SDS011;26030;51.164;17.100;2023-12-22T12:32:25;112.70;;;51.40;;
40322;SDS011;26030;51.164;17.100;2023-12-22T12:37:31;94.70;;;49.00;;
40322;SDS011;26030;51.164;17.100;2023-12-22T12:42:36;89.20;;;48.60;;
40322;SDS011;26030;51.164;17.100;2023-12-22T12:47:42;94.60;;;48.50;;
40322;SDS011;26030;51.164;17.100;2023-12-22T12:52:46;91.50;;;47.00;;
40322;SDS011;26030;51.164;17.100;2023-12-22T12:57:52;92.20;;;44.90;;
40322;SDS011;26030;51.164;17.100;2023-12-22T13:03:00;81.30;;;42.80;;
40322;SDS011;26030;51.164;17.100;2023-12-22T13:08:11;87.60;;;43.10;;
40322;SDS011;26030;51.164;17.100;2023-12-22T13:13:16;73.70;;;40.40;;
40322;SDS011;26030;51.164;17.100;2023-12-22T13:18:21;80.50;;;41.40;;
40322;SDS011;26030;51.164;17.100;2023-12-22T13:23:26;74.10;;;40.60;;
40322;SDS011;26030;51.164;17.100;2023-12-22T13:28:34;72.80;;;38.30;;
40322;SDS011;26030;51.164;17.100;2023-12-22T13:33:38;66.40;;;37.30;;
40322;SDS011;26030;51.164;17.100;2023-12-22T13:38:47;60.60;;;35.20;;
40322;SDS011;26030;51.164;17.100;2023-12-22T13:43:52;68.10;;;36.00;;
40322;SDS011;26030;51.164;17.100;2023-12-22T13:48:56;59.70;;;33.00;;
40322;SDS011;26030;51.164;17.100;2023-12-22T13:54:01;58.70;;;34.60;;
40322;SDS011;26030;51.164;17.100;2023-12-22T13:59:07;55.40;;;33.40;;
40322;SDS011;26030;51.164;17.100;2023-12-22T14:04:16;67.70;;;32.60;;
40322;SDS011;26030;51.164;17.100;2023-12-22T14:09:23;60.20;;;31.10;;
40322;SDS011;26030;51.164;17.100;2023-12-22T14:14:30;56.30;;;30.80;;
40322;SDS011;26030;51.164;17.100;2023-12-22T14:19:36;46.80;;;27.80;;
40322;SDS011;26030;51.164;17.100;2023-12-22T14:24:48;50.10;;;27.40;;
40322;SDS011;26030;51.164;17.100;2023-12-22T14:29:52;42.70;;;26.30;;
40322;SDS011;26030;51.164;17.100;2023-12-22T14:34:56;51.30;;;27.10;;
40322;SDS011;26030;51.164;17.100;2023-12-22T14:40:02;43.90;;;24.90;;
40322;SDS011;26030;51.164;17.100;2023-12-22T14:45:06;42.80;;;24.50;;
40322;SDS011;26030;51.164;17.100;2023-12-22T14:50:15;40.20;;;24.90;;
40322;SDS011;26030;51.164;17.100;2023-12-22T14:55:20;50.20;;;25.70;;
40322;SDS011;26030;51.164;17.100;2023-12-22T15:00:25;41.80;;;24.40;;
40322;SDS011;26030;51.164;17.100;2023-12-22T15:05:30;41.20;;;23.50;;
40322;SDS011;26030;51.164;17.100;2023-12-22T15:10:40;39.70;;;22.70;;
40322;SDS011;26030;51.164;17.100;2023-12-22T15:15:44;40.10;;;21.40;;
40322;SDS011;26030;51.164;17.100;2023-12-22T15:20:48;35.60;;;18.30;;
40322;SDS011;26030;51.164;17.100;2023-12-22T15:25:56;36.60;;;20.10;;
40322;SDS011;26030;51.164;17.100;2023-12-22T15:31:08;34.60;;;18.00;;
40322;SDS011;26030;51.164;17.100;2023-12-22T15:36:21;28.80;;;17.80;;
40322;SDS011;26030;51.164;17.100;2023-12-22T15:41:31;30.60;;;17.10;;
40322;SDS011;26030;51.164;17.100;2023-12-22T15:46:35;29.00;;;17.30;;
40322;SDS011;26030;51.164;17.100;2023-12-22T15:51:40;30.70;;;18.60;;
40322;SDS011;26030;51.164;17.100;2023-12-22T15:56:45;26.00;;;16.50;;
40322;SDS011;26030;51.164;17.100;2023-12-22T16:01:49;27.50;;;16.70;;
40322;SDS011;26030;51.164;17.100;2023-12-22T16:06:54;29.30;;;14.70;;
40322;SDS011;26030;51.164;17.100;2023-12-22T16:11:58;23.30;;;14.80;;
40322;SDS011;26030;51.164;17.100;2023-12-22T16:17:03;24.20;;;15.10;;
40322;SDS011;26030;51.164;17.100;2023-12-22T16:22:10;25.20;;;14.10;;
40322;SDS011;26030;51.164;17.100;2023-12-22T16:27:15;20.70;;;12.80;;
40322;SDS011;26030;51.164;17.100;2023-12-22T16:32:21;31.30;;;13.70;;
40322;SDS011;26030;51.164;17.100;2023-12-22T16:37:25;21.30;;;13.50;;
40322;SDS011;26030;51.164;17.100;2023-12-22T16:42:30;18.20;;;11.70;;
40322;SDS011;26030;51.164;17.100;2023-12-22T16:47:34;19.40;;;11.50;;
40322;SDS011;26030;51.164;17.100;2023-12-22T16:52:39;18.60;;;11.60;;
40322;SDS011;26030;51.164;17.100;2023-12-22T16:57:44;17.60;;;11.60;;
40322;SDS011;26030;51.164;17.100;2023-12-22T17:02:49;18.30;;;11.40;;
40322;SDS011;26030;51.164;17.100;2023-12-22T17:07:54;20.80;;;10.60;;
40322;SDS011;26030;51.164;17.100;2023-12-22T17:12:59;16.60;;;10.00;;
40322;SDS011;26030;51.164;17.100;2023-12-22T17:18:05;20.70;;;11.40;;
40322;SDS011;26030;51.164;17.100;2023-12-22T17:23:09;17.90;;;9.30;;
40322;SDS011;26030;51.164;17.100;2023-12-22T17:28:15;19.60;;;10.50;;
40322;SDS011;26030;51.164;17.100;2023-12-22T17:33:19;17.40;;;9.40;;
40322;SDS011;26030;51.164;17.100;2023-12-22T17:38:24;17.10;;;9.60;;
40322;SDS011;26030;51.164;17.100;2023-12-22T17:43:28;11.40;;;8.70;;
40322;SDS011;26030;51.164;17.100;2023-12-22T17:48:33;16.10;;;8.60;;
40322;SDS011;26030;51.164;17.100;2023-12-22T17:53:38;14.50;;;8.90;;
40322;SDS011;26030;51.164;17.100;2023-12-22T17:58:43;19.40;;;8.10;;
40322;SDS011;26030;51.164;17.100;2023-12-22T18:03:49;12.50;;;7.90;;
40322;SDS011;26030;51.164;17.100;2023-12-22T18:08:58;11.50;;;7.70;;
40322;SDS011;26030;51.164;17.100;2023-12-22T18:14:02;15.70;;;7.70;;
40322;SDS011;26030;51.164;17.100;2023-12-22T18:19:08;11.50;;;7.00;;
40322;SDS011;26030;51.164;17.100;2023-12-22T18:24:13;11.50;;;7.00;;
40322;SDS011;26030;51.164;17.100;2023-12-22T18:29:17;10.20;;;6.70;;
40322;SDS011;26030;51.164;17.100;2023-12-22T18:34:21;12.30;;;6.20;;
40322;SDS011;26030;51.164;17.100;2023-12-22T18:39:26;12.10;;;7.10;;
40322;SDS011;26030;51.164;17.100;2023-12-22T18:44:31;9.00;;;6.00;;
40322;SDS011;26030;51.164;17.100;2023-12-22T18:49:35;9.90;;;5.90;;
40322;SDS011;26030;51.164;17.100;2023-12-22T18:54:40;22.70;;;6.30;;
40322;SDS011;26030;51.164;17.100;2023-12-22T18:59:46;9.60;;;5.80;;
40322;SDS011;26030;51.164;17.100;2023-12-22T19:04:54;11.50;;;5.50;;
40322;SDS011;26030;51.164;17.100;2023-12-22T19:10:02;7.10;;;5.00;;
40322;SDS011;26030;51.164;17.100;2023-12-22T19:15:07;8.20;;;5.30;;
40322;SDS011;26030;51.164;17.100;2023-12-22T19:20:13;12.50;;;5.60;;
40322;SDS011;26030;51.164;17.100;2023-12-22T19:25:19;6.60;;;4.50;;
40322;SDS011;26030;51.164;17.100;2023-12-22T19:30:23;6.20;;;4.50;;
40322;SDS011;26030;51.164;17.100;2023-12-22T19:35:28;8.10;;;5.10;;
40322;SDS011;26030;51.164;17.100;2023-12-22T19:40:34;14.70;;;4.90;;
40322;SDS011;26030;51.164;17.100;2023-12-22T19:45:39;13.90;;;5.00;;
40322;SDS011;26030;51.164;17.100;2023-12-22T19:50:44;8.70;;;4.70;;
40322;SDS011;26030;51.164;17.100;2023-12-22T19:55:50;7.00;;;4.90;;
40322;SDS011;26030;51.164;17.100;2023-12-22T20:00:56;7.80;;;4.60;;
40322;SDS011;26030;51.164;17.100;2023-12-22T20:06:02;8.40;;;4.60;;
40322;SDS011;26030;51.164;17.100;2023-12-22T20:11:09;4.40;;;3.20;;
40322;SDS011;26030;51.164;17.100;2023-12-22T20:16:14;5.90;;;4.10;;
40322;SDS011;26030;51.164;17.100;2023-12-22T20:21:21;8.00;;;4.00;;
40322;SDS011;26030;51.164;17.100;2023-12-22T20:26:25;5.60;;;3.60;;
40322;SDS011;26030;51.164;17.100;2023-12-22T20:31:31;10.30;;;4.40;;
40322;SDS011;26030;51.164;17.100;2023-12-22T20:36:38;14.10;;;4.30;;
40322;SDS011;26030;51.164;17.100;2023-12-22T20:41:45;8.40;;;3.60;;
40322;SDS011;26030;51.164;17.100;2023-12-22T20:46:50;9.40;;;3.80;;
40322;SDS011;26030;51.164;17.100;2023-12-22T20:51:55;6.80;;;3.60;;
40322;SDS011;26030;51.164;17.100;2023-12-22T20:57:00;9.00;;;3.00;;
40322;SDS011;26030;51.164;17.100;2023-12-22T21:02:08;7.00;;;3.60;;
40322;SDS011;26030;51.164;17.100;2023-12-22T21:07:13;5.10;;;3.30;;
40322;SDS011;26030;51.164;17.100;2023-12-22T21:12:20;12.90;;;3.30;;
40322;SDS011;26030;51.164;17.100;2023-12-22T21:17:26;6.20;;;3.00;;
40322;SDS011;26030;51.164;17.100;2023-12-22T21:22:31;9.70;;;3.50;;
40322;SDS011;26030;51.164;17.100;2023-12-22T21:27:37;5.20;;;3.00;;
40322;SDS011;26030;51.164;17.100;2023-12-22T21:32:42;7.80;;;2.70;;
40322;SDS011;26030;51.164;17.100;2023-12-22T21:37:47;7.20;;;2.60;;
40322;SDS011;26030;51.164;17.100;2023-12-22T21:42:54;7.50;;;2.80;;
40322;SDS011;26030;51.164;17.100;2023-12-22T21:48:00;12.80;;;3.00;;
40322;SDS011;26030;51.164;17.100;2023-12-22T21:53:04;3.20;;;2.30;;
40322;SDS011;26030;51.164;17.100;2023-12-22T21:58:09;7.10;;;2.70;;
40322;SDS011;26030;51.164;17.100;2023-12-22T22:03:14;4.60;;;2.80;;
40322;SDS011;26030;51.164;17.100;2023-12-22T22:08:19;3.80;;;2.40;;
40322;SDS011;26030;51.164;17.100;2023-12-22T22:13:24;9.50;;;3.40;;
40322;SDS011;26030;51.164;17.100;2023-12-22T22:18:32;9.50;;;3.20;;
40322;SDS011;26030;51.164;17.100;2023-12-22T22:23:48;25.30;;;12.40;;
40322;SDS011;26030;51.164;17.100;2023-12-22T22:29:05;58.70;;;32.10;;
40322;SDS011;26030;51.164;17.100;2023-12-22T22:34:10;66.40;;;31.60;;
40322;SDS011;26030;51.164;17.100;2023-12-22T22:39:15;95.00;;;44.20;;
40322;SDS011;26030;51.164;17.100;2023-12-22T22:44:19;102.90;;;50.20;;
40322;SDS011;26030;51.164;17.100;2023-12-22T22:49:24;93.10;;;43.20;;
40322;SDS011;26030;51.164;17.100;2023-12-22T22:54:28;85.40;;;44.40;;
40322;SDS011;26030;51.164;17.100;2023-12-22T22:59:33;76.10;;;39.90;;
40322;SDS011;26030;51.164;17.100;2023-12-22T23:04:40;65.20;;;35.30;;
40322;SDS011;26030;51.164;17.100;2023-12-22T23:09:45;72.40;;;36.40;;
40322;SDS011;26030;51.164;17.100;2023-12-22T23:14:52;71.20;;;33.60;;
40322;SDS011;26030;51.164;17.100;2023-12-22T23:19:57;67.90;;;31.90;;
40322;SDS011;26030;51.164;17.100;2023-12-22T23:25:02;60.60;;;31.30;;
40322;SDS011;26030;51.164;17.100;2023-12-22T23:30:09;63.60;;;31.10;;
40322;SDS011;26030;51.164;17.100;2023-12-22T23:35:15;66.80;;;32.90;;
40322;SDS011;26030;51.164;17.100;2023-12-22T23:40:19;56.30;;;30.10;;
40322;SDS011;26030;51.164;17.100;2023-12-22T23:45:24;56.80;;;29.60;;
40322;SDS011;26030;51.164;17.100;2023-12-22T23:50:28;61.20;;;29.10;;
40322;SDS011;26030;51.164;17.100;2023-12-22T23:55:33;57.20;;;29.50;;
